sensor_id;sensor_type;location;lat;lon;timestamp;P1;durP1;ratioP1;P2;durP2;ratioP2
3993;SDS011;2011;48.238;13.948;2023-04-16T00:02:00;19.10;;;14.97;;
3993;SDS011;2011;48.238;13.948;2023-04-16T00:04:27;23.83;;;15.87;;
3993;SDS011;2011;48.238;13.948;2023-04-16T00:06:53;21.47;;;16.40;;
3993;SDS011;2011;48.238;13.948;2023-04-16T00:09:22;25.63;;;16.87;;
3993;SDS011;2011;48.238;13.948;2023-04-16T00:11:48;23.10;;;16.30;;
3993;SDS011;2011;48.238;13.948;2023-04-16T00:14:15;26.30;;;16.67;;
3993;SDS011;2011;48.238;13.948;2023-04-16T00:16:42;22.83;;;16.47;;
3993;SDS011;2011;48.238;13.948;2023-04-16T00:19:09;22.23;;;15.57;;
3993;SDS011;2011;48.238;13.948;2023-04-16T00:21:36;25.23;;;16.00;;
3993;SDS011;2011;48.238;13.948;2023-04-16T00:24:03;20.30;;;15.67;;
3993;SDS011;2011;48.238;13.948;2023-04-16T00:26:32;27.00;;;17.67;;
3993;SDS011;2011;48.238;13.948;2023-04-16T00:28:59;24.30;;;16.80;;
3993;SDS011;2011;48.238;13.948;2023-04-16T00:31:27;25.00;;;17.53;;
3993;SDS011;2011;48.238;13.948;2023-04-16T00:33:54;24.80;;;18.00;;
3993;SDS011;2011;48.238;13.948;2023-04-16T00:36:21;24.77;;;16.80;;
3993;SDS011;2011;48.238;13.948;2023-04-16T00:38:48;28.53;;;18.93;;
3993;SDS011;2011;48.238;13.948;2023-04-16T00:41:15;25.47;;;17.90;;
3993;SDS011;2011;48.238;13.948;2023-04-16T00:43:43;25.87;;;17.37;;
3993;SDS011;2011;48.238;13.948;2023-04-16T00:46:11;25.20;;;17.77;;
3993;SDS011;2011;48.238;13.948;2023-04-16T00:48:38;28.77;;;18.03;;
3993;SDS011;2011;48.238;13.948;2023-04-16T00:51:06;24.10;;;17.80;;
3993;SDS011;2011;48.238;13.948;2023-04-16T00:53:34;29.50;;;19.20;;
3993;SDS011;2011;48.238;13.948;2023-04-16T00:56:02;28.23;;;18.47;;
3993;SDS011;2011;48.238;13.948;2023-04-16T00:58:30;27.80;;;19.67;;
3993;SDS011;2011;48.238;13.948;2023-04-16T01:00:59;28.30;;;18.70;;
3993;SDS011;2011;48.238;13.948;2023-04-16T01:03:29;29.03;;;17.53;;
3993;SDS011;2011;48.238;13.948;2023-04-16T01:06:02;27.23;;;16.93;;
3993;SDS011;2011;48.238;13.948;2023-04-16T01:08:29;23.90;;;17.17;;
3993;SDS011;2011;48.238;13.948;2023-04-16T01:10:56;26.07;;;18.10;;
3993;SDS011;2011;48.238;13.948;2023-04-16T01:13:23;25.73;;;18.03;;
3993;SDS011;2011;48.238;13.948;2023-04-16T01:15:50;25.30;;;18.10;;
3993;SDS011;2011;48.238;13.948;2023-04-16T01:18:19;29.20;;;18.90;;
3993;SDS011;2011;48.238;13.948;2023-04-16T01:20:48;28.30;;;18.27;;
3993;SDS011;2011;48.238;13.948;2023-04-16T01:23:15;24.90;;;17.73;;
3993;SDS011;2011;48.238;13.948;2023-04-16T01:25:43;27.00;;;17.20;;
3993;SDS011;2011;48.238;13.948;2023-04-16T01:28:10;28.10;;;18.23;;
3993;SDS011;2011;48.238;13.948;2023-04-16T01:30:37;25.03;;;17.33;;
3993;SDS011;2011;48.238;13.948;2023-04-16T01:33:04;23.57;;;15.87;;
3993;SDS011;2011;48.238;13.948;2023-04-16T01:35:32;25.90;;;16.80;;
3993;SDS011;2011;48.238;13.948;2023-04-16T01:38:00;23.90;;;17.90;;
3993;SDS011;2011;48.238;13.948;2023-04-16T01:40:27;23.63;;;16.10;;
3993;SDS011;2011;48.238;13.948;2023-04-16T01:42:54;26.40;;;16.83;;
3993;SDS011;2011;48.238;13.948;2023-04-16T01:45:21;27.70;;;17.77;;
3993;SDS011;2011;48.238;13.948;2023-04-16T01:47:48;29.20;;;17.70;;
3993;SDS011;2011;48.238;13.948;2023-04-16T01:50:15;23.77;;;16.83;;
3993;SDS011;2011;48.238;13.948;2023-04-16T01:52:42;29.63;;;19.83;;
3993;SDS011;2011;48.238;13.948;2023-04-16T01:55:11;32.00;;;19.53;;
3993;SDS011;2011;48.238;13.948;2023-04-16T01:57:38;25.33;;;17.63;;
3993;SDS011;2011;48.238;13.948;2023-04-16T02:00:05;27.27;;;17.47;;
3993;SDS011;2011;48.238;13.948;2023-04-16T02:02:33;29.30;;;17.47;;
3993;SDS011;2011;48.238;13.948;2023-04-16T02:05:01;28.83;;;17.90;;
3993;SDS011;2011;48.238;13.948;2023-04-16T02:07:28;25.73;;;16.93;;
3993;SDS011;2011;48.238;13.948;2023-04-16T02:09:55;28.63;;;17.97;;
3993;SDS011;2011;48.238;13.948;2023-04-16T02:12:24;25.10;;;16.60;;
3993;SDS011;2011;48.238;13.948;2023-04-16T02:14:51;25.87;;;17.07;;
3993;SDS011;2011;48.238;13.948;2023-04-16T02:17:18;28.77;;;18.20;;
3993;SDS011;2011;48.238;13.948;2023-04-16T02:19:45;29.97;;;17.83;;
3993;SDS011;2011;48.238;13.948;2023-04-16T02:22:12;26.40;;;18.07;;
3993;SDS011;2011;48.238;13.948;2023-04-16T02:24:39;27.33;;;16.80;;
3993;SDS011;2011;48.238;13.948;2023-04-16T02:27:06;26.63;;;18.03;;
3993;SDS011;2011;48.238;13.948;2023-04-16T02:29:34;26.43;;;16.97;;
3993;SDS011;2011;48.238;13.948;2023-04-16T02:32:01;28.47;;;17.97;;
3993;SDS011;2011;48.238;13.948;2023-04-16T02:34:28;24.57;;;16.83;;
3993;SDS011;2011;48.238;13.948;2023-04-16T02:36:55;25.77;;;17.83;;
3993;SDS011;2011;48.238;13.948;2023-04-16T02:39:23;25.43;;;17.17;;
3993;SDS011;2011;48.238;13.948;2023-04-16T02:41:50;29.57;;;19.47;;
3993;SDS011;2011;48.238;13.948;2023-04-16T02:44:17;27.40;;;18.37;;
3993;SDS011;2011;48.238;13.948;2023-04-16T02:46:45;34.17;;;18.93;;
3993;SDS011;2011;48.238;13.948;2023-04-16T02:49:12;22.80;;;16.47;;
3993;SDS011;2011;48.238;13.948;2023-04-16T02:51:39;25.03;;;17.23;;
3993;SDS011;2011;48.238;13.948;2023-04-16T02:54:06;26.37;;;18.50;;
3993;SDS011;2011;48.238;13.948;2023-04-16T02:56:33;24.27;;;17.20;;
3993;SDS011;2011;48.238;13.948;2023-04-16T02:59:00;25.30;;;17.17;;
3993;SDS011;2011;48.238;13.948;2023-04-16T03:01:26;25.73;;;16.83;;
3993;SDS011;2011;48.238;13.948;2023-04-16T03:03:55;24.80;;;17.57;;
3993;SDS011;2011;48.238;13.948;2023-04-16T03:06:22;27.07;;;16.97;;
3993;SDS011;2011;48.238;13.948;2023-04-16T03:08:48;26.73;;;18.17;;
3993;SDS011;2011;48.238;13.948;2023-04-16T03:11:15;25.57;;;17.90;;
3993;SDS011;2011;48.238;13.948;2023-04-16T03:13:43;30.70;;;18.00;;
3993;SDS011;2011;48.238;13.948;2023-04-16T03:16:10;32.20;;;19.30;;
3993;SDS011;2011;48.238;13.948;2023-04-16T03:18:37;27.77;;;18.23;;
3993;SDS011;2011;48.238;13.948;2023-04-16T03:21:05;24.90;;;17.27;;
3993;SDS011;2011;48.238;13.948;2023-04-16T03:23:32;29.60;;;19.20;;
3993;SDS011;2011;48.238;13.948;2023-04-16T03:25:59;29.23;;;19.70;;
3993;SDS011;2011;48.238;13.948;2023-04-16T03:28:26;25.53;;;19.07;;
3993;SDS011;2011;48.238;13.948;2023-04-16T03:30:53;29.73;;;19.70;;
3993;SDS011;2011;48.238;13.948;2023-04-16T03:33:20;25.20;;;18.37;;
3993;SDS011;2011;48.238;13.948;2023-04-16T03:35:53;26.60;;;17.53;;
3993;SDS011;2011;48.238;13.948;2023-04-16T03:38:22;27.67;;;17.90;;
3993;SDS011;2011;48.238;13.948;2023-04-16T03:40:50;24.37;;;17.63;;
3993;SDS011;2011;48.238;13.948;2023-04-16T03:43:17;30.60;;;18.63;;
3993;SDS011;2011;48.238;13.948;2023-04-16T03:45:44;26.63;;;18.40;;
3993;SDS011;2011;48.238;13.948;2023-04-16T03:48:11;26.73;;;18.07;;
3993;SDS011;2011;48.238;13.948;2023-04-16T03:50:38;27.77;;;18.70;;
3993;SDS011;2011;48.238;13.948;2023-04-16T03:53:05;28.00;;;19.03;;
3993;SDS011;2011;48.238;13.948;2023-04-16T03:55:34;29.23;;;19.80;;
3993;SDS011;2011;48.238;13.948;2023-04-16T03:58:01;29.00;;;18.43;;
3993;SDS011;2011;48.238;13.948;2023-04-16T04:00:29;30.00;;;19.80;;
3993;SDS011;2011;48.238;13.948;2023-04-16T04:02:56;26.37;;;19.13;;
3993;SDS011;2011;48.238;13.948;2023-04-16T04:05:23;26.33;;;18.00;;
3993;SDS011;2011;48.238;13.948;2023-04-16T04:07:50;32.40;;;18.33;;
3993;SDS011;2011;48.238;13.948;2023-04-16T04:10:17;26.60;;;18.10;;
3993;SDS011;2011;48.238;13.948;2023-04-16T04:12:46;28.70;;;19.00;;
3993;SDS011;2011;48.238;13.948;2023-04-16T04:15:13;31.47;;;19.80;;
3993;SDS011;2011;48.238;13.948;2023-04-16T04:17:40;27.87;;;19.03;;
3993;SDS011;2011;48.238;13.948;2023-04-16T04:20:07;28.87;;;19.20;;
3993;SDS011;2011;48.238;13.948;2023-04-16T04:22:34;26.47;;;19.10;;
3993;SDS011;2011;48.238;13.948;2023-04-16T04:25:01;25.80;;;18.43;;
3993;SDS011;2011;48.238;13.948;2023-04-16T04:27:28;27.90;;;18.77;;
3993;SDS011;2011;48.238;13.948;2023-04-16T04:29:56;29.67;;;19.70;;
3993;SDS011;2011;48.238;13.948;2023-04-16T04:32:23;30.67;;;19.37;;
3993;SDS011;2011;48.238;13.948;2023-04-16T04:34:50;26.60;;;18.77;;
3993;SDS011;2011;48.238;13.948;2023-04-16T04:37:18;25.77;;;17.50;;
3993;SDS011;2011;48.238;13.948;2023-04-16T04:39:45;28.30;;;18.47;;
3993;SDS011;2011;48.238;13.948;2023-04-16T04:42:12;28.40;;;18.30;;
3993;SDS011;2011;48.238;13.948;2023-04-16T04:44:39;25.30;;;17.13;;
3993;SDS011;2011;48.238;13.948;2023-04-16T04:47:07;25.90;;;17.20;;
3993;SDS011;2011;48.238;13.948;2023-04-16T04:49:35;26.43;;;17.30;;
3993;SDS011;2011;48.238;13.948;2023-04-16T04:52:02;23.43;;;15.90;;
3993;SDS011;2011;48.238;13.948;2023-04-16T04:54:29;22.20;;;15.90;;
3993;SDS011;2011;48.238;13.948;2023-04-16T04:56:57;22.47;;;16.53;;
3993;SDS011;2011;48.238;13.948;2023-04-16T04:59:24;21.50;;;14.57;;
3993;SDS011;2011;48.238;13.948;2023-04-16T05:01:51;17.07;;;13.17;;
3993;SDS011;2011;48.238;13.948;2023-04-16T05:04:19;19.60;;;12.97;;
3993;SDS011;2011;48.238;13.948;2023-04-16T05:06:46;19.17;;;13.80;;
3993;SDS011;2011;48.238;13.948;2023-04-16T05:09:13;20.93;;;14.70;;
3993;SDS011;2011;48.238;13.948;2023-04-16T05:11:40;21.33;;;14.03;;
3993;SDS011;2011;48.238;13.948;2023-04-16T05:14:07;20.00;;;13.77;;
3993;SDS011;2011;48.238;13.948;2023-04-16T05:16:34;20.83;;;13.83;;
3993;SDS011;2011;48.238;13.948;2023-04-16T05:19:01;19.23;;;13.70;;
3993;SDS011;2011;48.238;13.948;2023-04-16T05:21:30;21.00;;;14.20;;
3993;SDS011;2011;48.238;13.948;2023-04-16T05:23:57;17.90;;;12.30;;
3993;SDS011;2011;48.238;13.948;2023-04-16T05:26:24;18.67;;;13.30;;
3993;SDS011;2011;48.238;13.948;2023-04-16T05:28:51;20.50;;;13.50;;
3993;SDS011;2011;48.238;13.948;2023-04-16T05:31:18;19.30;;;13.53;;
3993;SDS011;2011;48.238;13.948;2023-04-16T05:33:45;15.63;;;10.93;;
3993;SDS011;2011;48.238;13.948;2023-04-16T05:36:12;20.80;;;13.03;;
3993;SDS011;2011;48.238;13.948;2023-04-16T05:38:41;18.30;;;12.60;;
3993;SDS011;2011;48.238;13.948;2023-04-16T05:41:07;18.00;;;11.80;;
3993;SDS011;2011;48.238;13.948;2023-04-16T05:43:35;17.70;;;11.83;;
3993;SDS011;2011;48.238;13.948;2023-04-16T05:46:02;18.03;;;13.03;;
3993;SDS011;2011;48.238;13.948;2023-04-16T05:48:28;15.87;;;11.30;;
3993;SDS011;2011;48.238;13.948;2023-04-16T05:50:56;14.80;;;10.70;;
3993;SDS011;2011;48.238;13.948;2023-04-16T05:53:23;15.47;;;10.30;;
3993;SDS011;2011;48.238;13.948;2023-04-16T05:55:51;15.93;;;9.63;;
3993;SDS011;2011;48.238;13.948;2023-04-16T05:58:18;12.00;;;9.20;;
3993;SDS011;2011;48.238;13.948;2023-04-16T06:00:45;73.00;;;32.83;;
3993;SDS011;2011;48.238;13.948;2023-04-16T06:03:13;13.63;;;11.07;;
3993;SDS011;2011;48.238;13.948;2023-04-16T06:05:41;15.90;;;9.20;;
3993;SDS011;2011;48.238;13.948;2023-04-16T06:08:08;10.93;;;8.23;;
3993;SDS011;2011;48.238;13.948;2023-04-16T06:10:35;12.50;;;9.50;;
3993;SDS011;2011;48.238;13.948;2023-04-16T06:13:03;10.57;;;8.47;;
3993;SDS011;2011;48.238;13.948;2023-04-16T06:15:30;8.97;;;7.40;;
3993;SDS011;2011;48.238;13.948;2023-04-16T06:17:57;9.90;;;7.83;;
3993;SDS011;2011;48.238;13.948;2023-04-16T06:20:24;10.00;;;8.30;;
3993;SDS011;2011;48.238;13.948;2023-04-16T06:22:51;9.23;;;7.23;;
3993;SDS011;2011;48.238;13.948;2023-04-16T06:25:18;8.93;;;7.60;;
3993;SDS011;2011;48.238;13.948;2023-04-16T06:27:45;7.93;;;6.73;;
3993;SDS011;2011;48.238;13.948;2023-04-16T06:30:14;8.40;;;6.77;;
3993;SDS011;2011;48.238;13.948;2023-04-16T06:32:42;7.33;;;6.63;;
3993;SDS011;2011;48.238;13.948;2023-04-16T06:35:10;7.17;;;6.47;;
3993;SDS011;2011;48.238;13.948;2023-04-16T06:37:37;7.73;;;6.93;;
3993;SDS011;2011;48.238;13.948;2023-04-16T06:40:04;8.20;;;7.10;;
3993;SDS011;2011;48.238;13.948;2023-04-16T06:42:32;7.13;;;6.10;;
3993;SDS011;2011;48.238;13.948;2023-04-16T06:44:59;7.57;;;6.77;;
3993;SDS011;2011;48.238;13.948;2023-04-16T06:47:27;18.30;;;6.50;;
3993;SDS011;2011;48.238;13.948;2023-04-16T06:49:54;10.90;;;6.73;;
3993;SDS011;2011;48.238;13.948;2023-04-16T06:52:21;6.40;;;5.33;;
3993;SDS011;2011;48.238;13.948;2023-04-16T06:54:48;7.97;;;6.20;;
3993;SDS011;2011;48.238;13.948;2023-04-16T06:57:15;9.77;;;6.27;;
3993;SDS011;2011;48.238;13.948;2023-04-16T06:59:42;8.07;;;6.60;;
3993;SDS011;2011;48.238;13.948;2023-04-16T07:02:09;8.93;;;6.07;;
3993;SDS011;2011;48.238;13.948;2023-04-16T07:04:37;8.53;;;7.00;;
3993;SDS011;2011;48.238;13.948;2023-04-16T07:07:04;9.40;;;6.77;;
3993;SDS011;2011;48.238;13.948;2023-04-16T07:09:31;9.20;;;6.60;;
3993;SDS011;2011;48.238;13.948;2023-04-16T07:11:58;9.30;;;7.00;;
3993;SDS011;2011;48.238;13.948;2023-04-16T07:14:25;10.23;;;7.70;;
3993;SDS011;2011;48.238;13.948;2023-04-16T07:16:51;13.57;;;7.50;;
3993;SDS011;2011;48.238;13.948;2023-04-16T07:19:18;11.37;;;7.90;;
3993;SDS011;2011;48.238;13.948;2023-04-16T07:21:46;10.37;;;7.73;;
3993;SDS011;2011;48.238;13.948;2023-04-16T07:24:13;9.53;;;7.67;;
3993;SDS011;2011;48.238;13.948;2023-04-16T07:26:40;10.87;;;8.40;;
3993;SDS011;2011;48.238;13.948;2023-04-16T07:29:07;10.90;;;8.87;;
3993;SDS011;2011;48.238;13.948;2023-04-16T07:31:34;14.13;;;7.93;;
3993;SDS011;2011;48.238;13.948;2023-04-16T07:34:01;9.70;;;7.80;;
3993;SDS011;2011;48.238;13.948;2023-04-16T07:36:28;11.13;;;7.73;;
3993;SDS011;2011;48.238;13.948;2023-04-16T07:38:57;10.47;;;7.57;;
3993;SDS011;2011;48.238;13.948;2023-04-16T07:41:24;9.43;;;7.43;;
3993;SDS011;2011;48.238;13.948;2023-04-16T07:43:51;9.93;;;7.73;;
3993;SDS011;2011;48.238;13.948;2023-04-16T07:46:18;10.03;;;7.33;;
3993;SDS011;2011;48.238;13.948;2023-04-16T07:48:45;10.60;;;6.90;;
3993;SDS011;2011;48.238;13.948;2023-04-16T07:51:11;11.13;;;7.33;;
3993;SDS011;2011;48.238;13.948;2023-04-16T07:53:38;9.30;;;6.70;;
3993;SDS011;2011;48.238;13.948;2023-04-16T07:56:07;9.77;;;6.40;;
3993;SDS011;2011;48.238;13.948;2023-04-16T07:58:34;10.23;;;6.87;;
3993;SDS011;2011;48.238;13.948;2023-04-16T08:01:01;8.80;;;7.20;;
3993;SDS011;2011;48.238;13.948;2023-04-16T08:03:28;9.83;;;6.70;;
3993;SDS011;2011;48.238;13.948;2023-04-16T08:05:55;8.77;;;7.03;;
3993;SDS011;2011;48.238;13.948;2023-04-16T08:08:22;9.50;;;7.00;;
3993;SDS011;2011;48.238;13.948;2023-04-16T08:10:49;7.40;;;6.23;;
3993;SDS011;2011;48.238;13.948;2023-04-16T08:13:21;8.07;;;6.60;;
3993;SDS011;2011;48.238;13.948;2023-04-16T08:15:48;8.53;;;6.63;;
3993;SDS011;2011;48.238;13.948;2023-04-16T08:18:15;10.50;;;7.43;;
3993;SDS011;2011;48.238;13.948;2023-04-16T08:20:42;8.13;;;6.53;;
3993;SDS011;2011;48.238;13.948;2023-04-16T08:23:09;9.83;;;6.57;;
3993;SDS011;2011;48.238;13.948;2023-04-16T08:25:36;6.70;;;5.73;;
3993;SDS011;2011;48.238;13.948;2023-04-16T08:28:03;8.23;;;6.63;;
3993;SDS011;2011;48.238;13.948;2023-04-16T08:30:31;8.20;;;6.20;;
3993;SDS011;2011;48.238;13.948;2023-04-16T08:32:58;6.93;;;5.90;;
3993;SDS011;2011;48.238;13.948;2023-04-16T08:35:26;17.30;;;6.87;;
3993;SDS011;2011;48.238;13.948;2023-04-16T08:37:52;7.77;;;5.73;;
3993;SDS011;2011;48.238;13.948;2023-04-16T08:40:21;7.37;;;6.00;;
3993;SDS011;2011;48.238;13.948;2023-04-16T08:42:51;6.90;;;6.10;;
3993;SDS011;2011;48.238;13.948;2023-04-16T08:45:19;7.10;;;6.00;;
3993;SDS011;2011;48.238;13.948;2023-04-16T08:47:48;6.20;;;5.20;;
3993;SDS011;2011;48.238;13.948;2023-04-16T08:50:17;7.00;;;6.07;;
3993;SDS011;2011;48.238;13.948;2023-04-16T08:52:49;6.90;;;5.53;;
3993;SDS011;2011;48.238;13.948;2023-04-16T08:55:18;6.73;;;5.80;;
3993;SDS011;2011;48.238;13.948;2023-04-16T08:57:47;7.30;;;5.13;;
3993;SDS011;2011;48.238;13.948;2023-04-16T09:00:17;5.40;;;4.40;;
3993;SDS011;2011;48.238;13.948;2023-04-16T09:02:44;6.13;;;4.30;;
3993;SDS011;2011;48.238;13.948;2023-04-16T09:05:14;5.87;;;4.50;;
3993;SDS011;2011;48.238;13.948;2023-04-16T09:07:43;5.40;;;4.23;;
3993;SDS011;2011;48.238;13.948;2023-04-16T09:10:10;7.20;;;4.70;;
3993;SDS011;2011;48.238;13.948;2023-04-16T09:12:40;5.40;;;4.37;;
3993;SDS011;2011;48.238;13.948;2023-04-16T09:15:08;4.80;;;4.30;;
3993;SDS011;2011;48.238;13.948;2023-04-16T09:17:36;6.33;;;5.13;;
3993;SDS011;2011;48.238;13.948;2023-04-16T09:20:04;5.10;;;3.97;;
3993;SDS011;2011;48.238;13.948;2023-04-16T09:22:34;7.10;;;4.90;;
3993;SDS011;2011;48.238;13.948;2023-04-16T09:25:01;5.10;;;4.23;;
3993;SDS011;2011;48.238;13.948;2023-04-16T09:27:29;4.93;;;4.20;;
3993;SDS011;2011;48.238;13.948;2023-04-16T09:29:56;6.50;;;4.30;;
3993;SDS011;2011;48.238;13.948;2023-04-16T09:32:24;5.13;;;4.10;;
3993;SDS011;2011;48.238;13.948;2023-04-16T09:34:53;5.50;;;4.20;;
3993;SDS011;2011;48.238;13.948;2023-04-16T09:37:21;5.90;;;4.03;;
3993;SDS011;2011;48.238;13.948;2023-04-16T09:39:54;5.30;;;4.80;;
3993;SDS011;2011;48.238;13.948;2023-04-16T09:42:23;5.27;;;4.10;;
3993;SDS011;2011;48.238;13.948;2023-04-16T09:44:51;24.83;;;5.73;;
3993;SDS011;2011;48.238;13.948;2023-04-16T09:47:18;5.90;;;4.70;;
3993;SDS011;2011;48.238;13.948;2023-04-16T09:49:46;4.20;;;3.63;;
3993;SDS011;2011;48.238;13.948;2023-04-16T09:52:14;7.80;;;4.87;;
3993;SDS011;2011;48.238;13.948;2023-04-16T09:54:45;6.33;;;4.63;;
3993;SDS011;2011;48.238;13.948;2023-04-16T09:57:14;5.77;;;4.87;;
3993;SDS011;2011;48.238;13.948;2023-04-16T09:59:45;5.13;;;4.27;;
3993;SDS011;2011;48.238;13.948;2023-04-16T10:02:12;7.03;;;4.73;;
3993;SDS011;2011;48.238;13.948;2023-04-16T10:04:44;6.03;;;4.57;;
3993;SDS011;2011;48.238;13.948;2023-04-16T10:07:11;6.53;;;4.40;;
3993;SDS011;2011;48.238;13.948;2023-04-16T10:09:39;6.50;;;4.70;;
3993;SDS011;2011;48.238;13.948;2023-04-16T10:12:06;6.30;;;4.83;;
3993;SDS011;2011;48.238;13.948;2023-04-16T10:14:35;6.23;;;4.80;;
3993;SDS011;2011;48.238;13.948;2023-04-16T10:17:02;6.67;;;5.40;;
3993;SDS011;2011;48.238;13.948;2023-04-16T10:19:30;6.57;;;4.80;;
3993;SDS011;2011;48.238;13.948;2023-04-16T10:21:58;5.20;;;4.40;;
3993;SDS011;2011;48.238;13.948;2023-04-16T10:24:25;4.83;;;4.10;;
3993;SDS011;2011;48.238;13.948;2023-04-16T10:26:53;5.70;;;4.63;;
3993;SDS011;2011;48.238;13.948;2023-04-16T10:29:20;7.83;;;5.03;;
3993;SDS011;2011;48.238;13.948;2023-04-16T10:31:50;6.03;;;5.00;;
3993;SDS011;2011;48.238;13.948;2023-04-16T10:34:19;5.50;;;4.80;;
3993;SDS011;2011;48.238;13.948;2023-04-16T10:36:47;8.70;;;4.80;;
3993;SDS011;2011;48.238;13.948;2023-04-16T10:39:16;6.83;;;5.00;;
3993;SDS011;2011;48.238;13.948;2023-04-16T10:41:44;7.53;;;4.50;;
3993;SDS011;2011;48.238;13.948;2023-04-16T10:44:11;6.50;;;4.93;;
3993;SDS011;2011;48.238;13.948;2023-04-16T10:46:39;5.20;;;4.50;;
3993;SDS011;2011;48.238;13.948;2023-04-16T10:49:14;6.17;;;4.47;;
3993;SDS011;2011;48.238;13.948;2023-04-16T10:51:51;5.63;;;4.73;;
3993;SDS011;2011;48.238;13.948;2023-04-16T10:54:21;6.20;;;4.67;;
3993;SDS011;2011;48.238;13.948;2023-04-16T10:56:50;5.30;;;4.33;;
3993;SDS011;2011;48.238;13.948;2023-04-16T10:59:18;9.83;;;4.47;;
3993;SDS011;2011;48.238;13.948;2023-04-16T11:01:46;4.60;;;4.00;;
3993;SDS011;2011;48.238;13.948;2023-04-16T11:04:26;6.33;;;4.30;;
3993;SDS011;2011;48.238;13.948;2023-04-16T11:07:04;5.10;;;4.50;;
3993;SDS011;2011;48.238;13.948;2023-04-16T11:09:45;4.70;;;3.43;;
3993;SDS011;2011;48.238;13.948;2023-04-16T11:12:18;9.67;;;3.97;;
3993;SDS011;2011;48.238;13.948;2023-04-16T11:14:46;5.93;;;4.17;;
3993;SDS011;2011;48.238;13.948;2023-04-16T11:17:14;5.37;;;4.57;;
3993;SDS011;2011;48.238;13.948;2023-04-16T11:19:42;6.60;;;3.80;;
3993;SDS011;2011;48.238;13.948;2023-04-16T11:22:11;6.40;;;5.20;;
3993;SDS011;2011;48.238;13.948;2023-04-16T11:24:41;7.60;;;5.83;;
3993;SDS011;2011;48.238;13.948;2023-04-16T11:27:08;9.30;;;5.90;;
3993;SDS011;2011;48.238;13.948;2023-04-16T11:29:37;8.17;;;5.60;;
3993;SDS011;2011;48.238;13.948;2023-04-16T11:32:04;8.40;;;5.73;;
3993;SDS011;2011;48.238;13.948;2023-04-16T11:34:31;12.30;;;6.73;;
3993;SDS011;2011;48.238;13.948;2023-04-16T11:36:59;12.17;;;7.20;;
3993;SDS011;2011;48.238;13.948;2023-04-16T11:39:26;7.73;;;5.60;;
3993;SDS011;2011;48.238;13.948;2023-04-16T11:41:53;6.33;;;5.10;;
3993;SDS011;2011;48.238;13.948;2023-04-16T11:44:21;5.60;;;4.60;;
3993;SDS011;2011;48.238;13.948;2023-04-16T11:46:49;5.93;;;4.13;;
3993;SDS011;2011;48.238;13.948;2023-04-16T11:49:17;7.33;;;5.10;;
3993;SDS011;2011;48.238;13.948;2023-04-16T11:51:52;5.00;;;3.80;;
3993;SDS011;2011;48.238;13.948;2023-04-16T11:54:22;5.97;;;4.63;;
3993;SDS011;2011;48.238;13.948;2023-04-16T11:56:50;5.43;;;4.57;;
3993;SDS011;2011;48.238;13.948;2023-04-16T11:59:19;7.60;;;4.60;;
3993;SDS011;2011;48.238;13.948;2023-04-16T12:01:48;5.20;;;4.13;;
3993;SDS011;2011;48.238;13.948;2023-04-16T12:04:17;5.87;;;4.60;;
3993;SDS011;2011;48.238;13.948;2023-04-16T12:07:03;6.33;;;4.67;;
3993;SDS011;2011;48.238;13.948;2023-04-16T12:09:34;5.83;;;4.90;;
3993;SDS011;2011;48.238;13.948;2023-04-16T12:12:02;5.33;;;4.70;;
3993;SDS011;2011;48.238;13.948;2023-04-16T12:14:29;6.50;;;4.83;;
3993;SDS011;2011;48.238;13.948;2023-04-16T12:19:48;5.23;;;4.60;;
3993;SDS011;2011;48.238;13.948;2023-04-16T12:22:16;6.50;;;5.10;;
3993;SDS011;2011;48.238;13.948;2023-04-16T12:24:44;5.73;;;5.13;;
3993;SDS011;2011;48.238;13.948;2023-04-16T12:27:11;6.10;;;5.30;;
3993;SDS011;2011;48.238;13.948;2023-04-16T12:29:38;5.97;;;4.70;;
3993;SDS011;2011;48.238;13.948;2023-04-16T12:32:05;5.60;;;4.70;;
3993;SDS011;2011;48.238;13.948;2023-04-16T12:34:50;6.03;;;4.80;;
3993;SDS011;2011;48.238;13.948;2023-04-16T12:37:17;5.53;;;4.70;;
3993;SDS011;2011;48.238;13.948;2023-04-16T12:39:45;5.47;;;4.67;;
3993;SDS011;2011;48.238;13.948;2023-04-16T12:42:12;5.40;;;4.57;;
3993;SDS011;2011;48.238;13.948;2023-04-16T12:44:39;7.53;;;4.60;;
3993;SDS011;2011;48.238;13.948;2023-04-16T12:47:06;5.00;;;4.47;;
3993;SDS011;2011;48.238;13.948;2023-04-16T12:49:33;5.20;;;4.23;;
3993;SDS011;2011;48.238;13.948;2023-04-16T12:52:01;5.10;;;4.60;;
3993;SDS011;2011;48.238;13.948;2023-04-16T12:54:28;6.80;;;5.17;;
3993;SDS011;2011;48.238;13.948;2023-04-16T12:56:56;6.17;;;4.50;;
3993;SDS011;2011;48.238;13.948;2023-04-16T12:59:23;6.50;;;5.43;;
3993;SDS011;2011;48.238;13.948;2023-04-16T13:01:50;5.47;;;4.43;;
3993;SDS011;2011;48.238;13.948;2023-04-16T13:04:17;5.87;;;4.50;;
3993;SDS011;2011;48.238;13.948;2023-04-16T13:06:44;6.20;;;4.37;;
3993;SDS011;2011;48.238;13.948;2023-04-16T13:09:11;8.47;;;5.30;;
3993;SDS011;2011;48.238;13.948;2023-04-16T13:11:38;6.60;;;5.10;;
3993;SDS011;2011;48.238;13.948;2023-04-16T13:14:06;5.70;;;4.83;;
3993;SDS011;2011;48.238;13.948;2023-04-16T13:16:33;6.13;;;4.63;;
3993;SDS011;2011;48.238;13.948;2023-04-16T13:19:02;8.03;;;5.13;;
3993;SDS011;2011;48.238;13.948;2023-04-16T13:21:29;8.80;;;4.77;;
3993;SDS011;2011;48.238;13.948;2023-04-16T13:23:56;6.73;;;5.27;;
3993;SDS011;2011;48.238;13.948;2023-04-16T13:26:24;5.90;;;4.93;;
3993;SDS011;2011;48.238;13.948;2023-04-16T13:28:51;6.33;;;4.80;;
3993;SDS011;2011;48.238;13.948;2023-04-16T13:31:20;5.70;;;4.83;;
3993;SDS011;2011;48.238;13.948;2023-04-16T13:33:47;5.70;;;4.63;;
3993;SDS011;2011;48.238;13.948;2023-04-16T13:36:14;6.27;;;5.13;;
3993;SDS011;2011;48.238;13.948;2023-04-16T13:38:40;6.33;;;4.50;;
3993;SDS011;2011;48.238;13.948;2023-04-16T13:41:07;6.70;;;5.07;;
3993;SDS011;2011;48.238;13.948;2023-04-16T13:43:35;7.80;;;4.50;;
3993;SDS011;2011;48.238;13.948;2023-04-16T13:46:02;5.10;;;4.20;;
3993;SDS011;2011;48.238;13.948;2023-04-16T13:48:31;5.73;;;4.93;;
3993;SDS011;2011;48.238;13.948;2023-04-16T13:50:58;5.70;;;4.80;;
3993;SDS011;2011;48.238;13.948;2023-04-16T13:53:25;5.80;;;4.40;;
3993;SDS011;2011;48.238;13.948;2023-04-16T13:55:52;6.40;;;4.27;;
3993;SDS011;2011;48.238;13.948;2023-04-16T13:58:19;6.10;;;4.77;;
3993;SDS011;2011;48.238;13.948;2023-04-16T14:00:46;4.90;;;4.20;;
3993;SDS011;2011;48.238;13.948;2023-04-16T14:03:13;5.80;;;3.77;;
3993;SDS011;2011;48.238;13.948;2023-04-16T14:05:41;6.87;;;4.27;;
3993;SDS011;2011;48.238;13.948;2023-04-16T14:08:08;6.60;;;4.23;;
3993;SDS011;2011;48.238;13.948;2023-04-16T14:10:37;8.13;;;4.07;;
3993;SDS011;2011;48.238;13.948;2023-04-16T14:13:04;4.50;;;3.60;;
3993;SDS011;2011;48.238;13.948;2023-04-16T14:15:31;5.43;;;4.00;;
3993;SDS011;2011;48.238;13.948;2023-04-16T14:17:58;4.63;;;3.47;;
3993;SDS011;2011;48.238;13.948;2023-04-16T14:20:25;3.93;;;3.40;;
3993;SDS011;2011;48.238;13.948;2023-04-16T14:22:53;4.77;;;3.03;;
3993;SDS011;2011;48.238;13.948;2023-04-16T14:25:21;5.70;;;2.90;;
3993;SDS011;2011;48.238;13.948;2023-04-16T14:27:49;4.17;;;3.17;;
3993;SDS011;2011;48.238;13.948;2023-04-16T14:30:16;4.30;;;3.30;;
3993;SDS011;2011;48.238;13.948;2023-04-16T14:32:43;4.33;;;3.23;;
3993;SDS011;2011;48.238;13.948;2023-04-16T14:35:11;3.50;;;2.87;;
3993;SDS011;2011;48.238;13.948;2023-04-16T14:37:38;5.90;;;3.70;;
3993;SDS011;2011;48.238;13.948;2023-04-16T14:40:07;5.90;;;3.50;;
3993;SDS011;2011;48.238;13.948;2023-04-16T14:42:36;5.37;;;3.80;;
3993;SDS011;2011;48.238;13.948;2023-04-16T14:45:04;5.63;;;4.00;;
3993;SDS011;2011;48.238;13.948;2023-04-16T14:47:32;4.80;;;3.93;;
3993;SDS011;2011;48.238;13.948;2023-04-16T14:50:09;7.37;;;4.87;;
3993;SDS011;2011;48.238;13.948;2023-04-16T14:52:37;6.50;;;5.30;;
3993;SDS011;2011;48.238;13.948;2023-04-16T14:55:06;7.67;;;3.90;;
3993;SDS011;2011;48.238;13.948;2023-04-16T14:57:34;4.97;;;3.90;;